• Join FlightAware (Why Join?)
  • Login
  • US Flag 
10:16PM EDT


 

Airport Tracker/Info


-or-


 

Live Flight TrackerFlight Track Log ✈ UAL1129 ✈ 06-Jul-2013 ✈ KIAH - KMCO

Flight Track Log - Related Links

Times and Time Zones

All times are in EDT time to prevent confusion due to time zone crossing. See the UAL1129 flight status page for this flight to view local times or setup timezone preferences in your user account.

Time Position Orientation Groundspeed Altitude Reporting Facility
EDT Latitude Longitude Course Direction KTS MPH feet Rate Location/Type
10:19AM 29.9552 -95.3362 177° South 170 196 900  Level FlightAware ADS-B
10:19AM 29.9552 -95.3362 177° South 170 196 900 1,500 Level FlightAware ADS-B
10:19AM 29.9535 -95.3336 127° Southeast 173 199 1,000 1,500 Climbing FlightAware ADS-B
10:19AM 29.9535 -95.3336 127° Southeast 173 199 1,000 1,800 Level FlightAware ADS-B
10:20AM 29.9488 -95.3256 124° Southeast 181 208 1,300 1,800 Climbing FlightAware ADS-B
10:20AM 29.9488 -95.3256 124° Southeast 181 208 1,300 1,500 Level FlightAware ADS-B
10:20AM 29.9469 -95.3219 121° Southeast 186 214 1,400 1,500 Climbing FlightAware ADS-B
10:20AM 29.9469 -95.3219 121° Southeast 186 214 1,400 1,980 Level FlightAware ADS-B
10:20AM 29.9453 -95.3163 108° East 190 219 1,600 1,980 Climbing FlightAware ADS-B
10:20AM 29.9453 -95.3163 108° East 190 219 1,600 1,200 Level FlightAware ADS-B
10:20AM 29.9445 -95.3111 100° East 195 224 1,700 1,200 Climbing FlightAware ADS-B
10:20AM 29.9445 -95.3111 100° East 195 224 1,700 1,500 Level FlightAware ADS-B
10:20AM 29.9436 -95.2944 94° East 215 247 2,100 1,500 Climbing FlightAware ADS-B
10:20AM 29.9436 -95.2944 94° East 215 247 2,100 2,760 Level FlightAware ADS-B
10:20AM 29.9427 -95.2762 93° East 223 257 2,800 2,760 Climbing FlightAware ADS-B
10:20AM 29.9427 -95.2762 93° East 223 257 2,800 3,180 Level FlightAware ADS-B
10:21AM 29.9419 -95.2585 93° East 225 259 3,600 3,180 Climbing FlightAware ADS-B
10:21AM 29.9419 -95.2585 93° East 225 259 3,600 1,200 Level FlightAware ADS-B
10:21AM 29.9408 -95.2394 94° East 243 280 3,900 1,200 Climbing FlightAware ADS-B
10:21AM 29.9408 -95.2394 94° East 243 280 3,900 300 Level FlightAware ADS-B
10:21AM 29.9393 -95.2160 94° East 256 295 4,000 300 Climbing FlightAware ADS-B
10:21AM 29.9393 -95.2160 94° East 256 295 4,000  Level FlightAware ADS-B
10:21AM 29.9380 -95.1950 94° East 261 300 4,000  Level FlightAware ADS-B
10:21AM 29.9380 -95.1950 94° East 261 300 4,000  Level FlightAware ADS-B
10:22AM 29.9375 -95.1838 93° East 259 298 4,000  Level FlightAware ADS-B
10:22AM 29.9375 -95.1838 93° East 259 298 4,000 1,740 Level FlightAware ADS-B
10:22AM 29.9412 -95.1323 84° East 266 306 5,100 1,740 Climbing FlightAware ADS-B
10:22AM 29.9412 -95.1323 84° East 266 306 5,100 3,720 Level FlightAware ADS-B
10:22AM 29.9433 -95.1095 84° East 265 305 6,100 3,720 Climbing FlightAware ADS-B
10:22AM 29.9433 -95.1095 84° East 265 305 6,100 2,760 Level FlightAware ADS-B
10:23AM 29.9515 -95.0272 83° East 281 323 8,800 2,760 Climbing FlightAware ADS-B
10:23AM 29.9515 -95.0272 83° East 281 323 8,800 2,520 Level FlightAware ADS-B
10:24AM 29.9581 -94.9630 83° East 295 339 10,600 2,520 Climbing FlightAware ADS-B
10:24AM 29.9581 -94.9630 83° East 295 339 10,600 2,580 Level FlightAware ADS-B
10:25AM 29.9614 -94.9263 84° East 302 348 11,600 2,580 Climbing FlightAware ADS-B
10:25AM 29.9614 -94.9263 84° East 302 348 11,600 1,920 Level FlightAware ADS-B
10:27AM 29.9643 -94.6534 89° East 376 433 16,400 1,920 Climbing FlightAware ADS-B
10:27AM 29.9643 -94.6534 89° East 376 433 16,400 1,980 Level FlightAware ADS-B
10:27AM 29.9649 -94.5922 89° East 384 442 17,400 1,980 Climbing FlightAware ADS-B
10:27AM 29.9649 -94.5922 89° East 384 442 17,400 2,160 Level FlightAware ADS-B
10:28AM 29.9655 -94.5299 89° East 392 451 18,500 2,160 Climbing FlightAware ADS-B
10:28AM 29.9655 -94.5299 89° East 392 451 18,500 2,160 Level FlightAware ADS-B
10:30AM 29.9672 -94.3331 90° East 396 456 21,900 2,160 Climbing FlightAware ADS-B
10:30AM 29.9672 -94.3331 90° East 396 456 21,900 1,440 Level FlightAware ADS-B
10:31AM 29.9687 -94.1339 90° East 423 487 24,100 1,440 Climbing FlightAware ADS-B
10:31AM 29.9687 -94.1339 90° East 423 487 24,100 1,500 Level FlightAware ADS-B
10:32AM 29.9691 -94.0635 90° East 429 494 24,900 1,500 Climbing FlightAware ADS-B
10:32AM 29.9691 -94.0635 90° East 429 494 24,900 2,460 Level FlightAware ADS-B
10:32AM 29.9695 -93.9950 90° East 420 483 26,200 2,460 Climbing FlightAware ADS-B
10:32AM 29.9695 -93.9950 90° East 420 483 26,200 3,000 Level FlightAware ADS-B
10:33AM 29.9698 -93.9292 90° East 402 463 27,700 3,000 Climbing FlightAware ADS-B
10:33AM 29.9698 -93.9292 90° East 402 463 27,700 1,500 Level FlightAware ADS-B
10:33AM 29.9702 -93.8629 90° East 406 467 28,500 1,500 Climbing FlightAware ADS-B
10:33AM 29.9702 -93.8629 90° East 406 467 28,500 1,380 Level FlightAware ADS-B
10:34AM 29.9704 -93.7960 90° East 410 472 29,200 1,380 Climbing FlightAware ADS-B
10:34AM 29.9704 -93.7960 90° East 410 472 29,200 960 Level FlightAware ADS-B
10:34AM 29.9708 -93.7277 90° East 417 480 29,700 960 Climbing FlightAware ADS-B
10:34AM 29.9708 -93.7277 90° East 417 480 29,700 1,080 Level FlightAware ADS-B
10:35AM 29.9710 -93.6568 90° East 423 487 30,300 1,080 Climbing FlightAware ADS-B
10:35AM 29.9710 -93.6568 90° East 423 487 30,300 720 Level FlightAware ADS-B
10:35AM 29.9713 -93.5874 90° East 432 497 30,700 720 Climbing FlightAware ADS-B
10:35AM 29.9713 -93.5874 90° East 432 497 30,700 600 Level FlightAware ADS-B
10:36AM 29.9714 -93.5168 90° East 441 507 31,000 600 Climbing FlightAware ADS-B
10:36AM 29.9714 -93.5168 90° East 441 507 31,000 540 Level FlightAware ADS-B
10:36AM 29.9715 -93.4430 90° East 452 520 31,300 540 Climbing FlightAware ADS-B
10:36AM 29.9715 -93.4430 90° East 452 520 31,300 720 Level FlightAware ADS-B
10:37AM 29.9716 -93.3671 90° East 459 528 31,700 720 Climbing FlightAware ADS-B
10:37AM 29.9716 -93.3671 90° East 459 528 31,700 960 Level FlightAware ADS-B
10:37AM 29.9716 -93.2911 90° East 464 534 32,200 960 Climbing FlightAware ADS-B
10:37AM 29.9716 -93.2911 90° East 464 534 32,200 1,140 Level FlightAware ADS-B
10:38AM 29.9716 -93.2136 90° East 466 536 32,800 1,140 Climbing FlightAware ADS-B
10:38AM 29.9716 -93.2136 90° East 466 536 32,800 900 Level FlightAware ADS-B
10:38AM 29.9715 -93.1335 90° East 468 539 33,300 900 Climbing FlightAware ADS-B
10:38AM 29.9715 -93.1335 90° East 468 539 33,300 960 Level FlightAware ADS-B
10:39AM 29.9714 -93.0588 90° East 469 540 33,800 960 Climbing FlightAware ADS-B
10:39AM 29.9714 -93.0588 90° East 469 540 33,800 1,200 Level FlightAware ADS-B
10:39AM 29.9714 -92.9816 90° East 469 540 34,400 1,200 Climbing FlightAware ADS-B
10:39AM 29.9714 -92.9816 90° East 469 540 34,400 780 Level FlightAware ADS-B
10:40AM 29.9706 -92.9461 91° East 466 536 34,600 780 Climbing FlightAware ADS-B
10:40AM 29.9706 -92.9461 91° East 466 536 34,600 720 Level FlightAware ADS-B
10:40AM 29.9665 -92.9056 97° East 464 534 34,800 720 Climbing FlightAware ADS-B
10:40AM 29.9665 -92.9056 97° East 464 534 34,800 960 Level FlightAware ADS-B
10:40AM 29.9612 -92.8761 102° East 464 534 35,000 960 Climbing FlightAware ADS-B
10:40AM 29.9612 -92.8761 102° East 464 534 35,000 780 Level FlightAware ADS-B
10:40AM 29.9526 -92.8419 106° East 461 531 35,200 780 Climbing FlightAware ADS-B
10:40AM 29.9526 -92.8419 106° East 461 531 35,200 960 Level FlightAware ADS-B
10:41AM 29.9334 -92.7714 107° East 459 528 35,700 960 Climbing FlightAware ADS-B
10:41AM 29.9334 -92.7714 107° East 459 528 35,700 1,260 Level FlightAware ADS-B
10:41AM 29.9094 -92.6838 108° East 451 519 36,500 1,260 Climbing FlightAware ADS-B
10:41AM 29.9094 -92.6838 108° East 451 519 36,500 600 Level FlightAware ADS-B
10:42AM 29.8801 -92.5766 107° East 448 516 37,000 600 Climbing FlightAware ADS-B
10:42AM 29.8801 -92.5766 107° East 448 516 37,000  Level FlightAware ADS-B
10:43AM 29.8610 -92.5070 108° East 451 519 37,000  Level FlightAware ADS-B
10:43AM 29.8610 -92.5070 108° East 451 519 37,000  Level FlightAware ADS-B
10:44AM 29.8277 -92.3872 108° East 453 521 37,000  Level FlightAware ADS-B
10:44AM 29.8277 -92.3872 108° East 453 521 37,000  Level FlightAware ADS-B
10:44AM 29.8004 -92.2877 108° East 452 520 37,000  Level FlightAware ADS-B
10:44AM 29.8004 -92.2877 108° East 452 520 37,000  Level FlightAware ADS-B
10:45AM 29.7810 -92.2171 108° East 453 521 37,000  Level FlightAware ADS-B
10:45AM 29.7810 -92.2171 108° East 453 521 37,000  Level FlightAware ADS-B
10:45AM 29.7579 -92.1336 108° East 453 521 37,000  Level FlightAware ADS-B
10:45AM 29.7579 -92.1336 108° East 453 521 37,000  Level FlightAware ADS-B
10:49AM 29.6092 -91.6031 108° East 466 536 37,000  Level FlightAware ADS-B
10:49AM 29.6092 -91.6031 108° East 466 536 37,000  Level FlightAware ADS-B
10:50AM 29.5750 -91.5014 111° Southeast 466 536 37,000  Level FlightAware ADS-B
10:50AM 29.5750 -91.5014 111° Southeast 466 536 37,000  Level FlightAware ADS-B
10:52AM 29.4690 -91.2400 115° Southeast 456 525 37,000  Level FlightAware
10:52AM 29.4690 -91.2400 115° Southeast 456 525 37,000  Level FlightAware
10:53AM 29.4370 -91.1660 116° Southeast 456 525 37,000  Level FlightAware
10:53AM 29.4370 -91.1660 116° Southeast 456 525 37,000  Level FlightAware
10:54AM 29.3660 -91.0460 124° Southeast 443 510 37,000  Level FlightAware
10:54AM 29.3660 -91.0460 124° Southeast 443 510 37,000  Level FlightAware
10:54AM 29.3050 -90.9420 124° Southeast 440 506 37,000  Level FlightAware
10:54AM 29.3050 -90.9420 124° Southeast 440 506 37,000  Level FlightAware
10:55AM 29.2600 -90.8620 123° Southeast 440 506 37,000  Level FlightAware
10:55AM 29.2600 -90.8620 123° Southeast 440 506 37,000  Level FlightAware
10:56AM 29.1910 -90.7410 123° Southeast 440 506 37,000  Level FlightAware
10:56AM 29.1910 -90.7410 123° Southeast 440 506 37,000  Level FlightAware
10:57AM 29.1570 -90.6810 123° Southeast 440 506 37,000  Level FlightAware
10:57AM 29.1570 -90.6810 123° Southeast 440 506 37,000  Level FlightAware
10:58AM 29.1010 -90.5830 123° Southeast 440 506 37,000  Level FlightAware
10:58AM 29.1010 -90.5830 123° Southeast 440 506 37,000  Level FlightAware
10:59AM 29.0660 -90.5220 123° Southeast 440 506 37,000  Level FlightAware
10:59AM 29.0660 -90.5220 123° Southeast 440 506 37,000  Level FlightAware
11:00AM 29.0090 -90.4200 123° Southeast 440 506 37,000  Level FlightAware
11:00AM 29.0090 -90.4200 123° Southeast 440 506 37,000  Level FlightAware
11:00AM 28.9740 -90.3590 123° Southeast 440 506 37,000  Level FlightAware
11:00AM 28.9740 -90.3590 123° Southeast 440 506 37,000  Level FlightAware
11:01AM 28.9290 -90.2790 123° Southeast 440 506 37,000  Level FlightAware
11:01AM 28.9290 -90.2790 123° Southeast 440 506 37,000  Level FlightAware
11:02AM 28.8360 -90.0010 111° Southeast 456 525 37,000  Level FlightAware
11:02AM 28.8360 -90.0010 111° Southeast 456 525 37,000  Level FlightAware
11:03AM 28.8020 -89.9020 111° Southeast 458 527 37,000  Level FlightAware
11:03AM 28.8020 -89.9020 111° Southeast 458 527 37,000  Level FlightAware
11:04AM 28.7680 -89.8090 113° Southeast 458 527 37,000  Level FlightAware
11:04AM 28.7680 -89.8090 113° Southeast 458 527 37,000  Level FlightAware
11:04AM 28.7350 -89.7180 112° Southeast 457 526 37,000  Level FlightAware
11:04AM 28.7350 -89.7180 112° Southeast 457 526 37,000  Level FlightAware
11:05AM 28.6920 -89.6320 120° Southeast 450 518 37,000  Level FlightAware
11:05AM 28.6920 -89.6320 120° Southeast 450 518 37,000  Level FlightAware
11:06AM 28.6520 -89.5440 117° Southeast 454 522 37,000  Level FlightAware
11:06AM 28.6520 -89.5440 117° Southeast 454 522 37,000  Level FlightAware
11:06AM 28.6390 -89.4580 100° East 460 529 37,000  Level FlightAware
11:06AM 28.6390 -89.4580 100° East 460 529 37,000  Level FlightAware
11:07AM 28.6240 -89.3630 100° East 460 529 37,000  Level FlightAware
11:07AM 28.6240 -89.3630 100° East 460 529 37,000  Level FlightAware
11:07AM 28.7100 -89.2860 38° Northeast 473 544 37,000  Level FlightAware
11:07AM 28.7100 -89.2860 38° Northeast 473 544 37,000  Level FlightAware
11:08AM 28.7480 -89.1930 65° Northeast 473 544 37,000  Level FlightAware
11:08AM 28.7480 -89.1930 65° Northeast 473 544 37,000  Level FlightAware
11:09AM 28.7900 -89.0920 65° Northeast 472 543 37,000  Level FlightAware
11:09AM 28.7900 -89.0920 65° Northeast 472 543 37,000  Level FlightAware
11:10AM 28.8200 -89.0040 69° East 470 541 37,000  Level FlightAware
11:10AM 28.8200 -89.0040 69° East 470 541 37,000  Level FlightAware
11:10AM 28.8540 -88.8990 70° East 470 541 37,000  Level FlightAware
11:10AM 28.8540 -88.8990 70° East 470 541 37,000  Level FlightAware
11:11AM 28.8830 -88.8110 69° East 468 539 37,000  Level FlightAware
11:11AM 28.8830 -88.8110 69° East 468 539 37,000  Level FlightAware
11:12AM 28.9130 -88.7200 69° East 466 536 37,000  Level FlightAware
11:12AM 28.9130 -88.7200 69° East 466 536 37,000  Level FlightAware
11:12AM 28.9450 -88.6210 70° East 465 535 37,000  Level FlightAware
11:12AM 28.9450 -88.6210 70° East 465 535 37,000  Level FlightAware
11:13AM 28.9730 -88.5340 70° East 464 534 37,000  Level FlightAware
11:13AM 28.9730 -88.5340 70° East 464 534 37,000  Level FlightAware
11:14AM 29.0060 -88.4290 70° East 463 533 37,000  Level FlightAware
11:14AM 29.0060 -88.4290 70° East 463 533 37,000  Level FlightAware
11:14AM 29.0380 -88.3280 70° East 460 529 37,000  Level FlightAware
11:14AM 29.0380 -88.3280 70° East 460 529 37,000  Level FlightAware
11:15AM 29.0610 -88.2360 74° East 460 529 37,000  Level FlightAware
11:15AM 29.0610 -88.2360 74° East 460 529 37,000  Level FlightAware
11:16AM 29.0870 -88.1360 73° East 461 531 37,000  Level FlightAware
11:16AM 29.0870 -88.1360 73° East 461 531 37,000  Level FlightAware
11:16AM 29.1060 -88.0580 74° East 463 533 37,000  Level FlightAware
11:16AM 29.1060 -88.0580 74° East 463 533 37,000  Level FlightAware
11:17AM 29.1300 -87.9540 75° East 461 531 37,000  Level FlightAware
11:17AM 29.1300 -87.9540 75° East 461 531 37,000  Level FlightAware
11:18AM 29.1370 -87.8560 85° East 460 529 37,000  Level FlightAware
11:18AM 29.1370 -87.8560 85° East 460 529 37,000  Level FlightAware
11:18AM 29.1410 -87.7660 87° East 462 532 37,000  Level FlightAware
11:18AM 29.1410 -87.7660 87° East 462 532 37,000  Level FlightAware
11:19AM 29.1330 -87.6680 95° East 458 527 37,000  Level FlightAware
11:19AM 29.1330 -87.6680 95° East 458 527 37,000  Level FlightAware
11:20AM 29.1120 -87.5740 104° East 458 527 37,000  Level FlightAware
11:20AM 29.1120 -87.5740 104° East 458 527 37,000  Level FlightAware
11:20AM 29.0910 -87.4850 105° East 464 534 37,000  Level FlightAware
11:20AM 29.0910 -87.4850 105° East 464 534 37,000  Level FlightAware
11:21AM 29.0710 -87.3950 104° East 465 535 37,000  Level FlightAware
11:21AM 29.0710 -87.3950 104° East 465 535 37,000  Level FlightAware
11:22AM 29.0460 -87.2870 105° East 460 529 37,000  Level FlightAware
11:22AM 29.0460 -87.2870 105° East 460 529 37,000  Level FlightAware
11:22AM 29.0240 -87.1900 105° East 457 526 37,000  Level FlightAware
11:22AM 29.0240 -87.1900 105° East 457 526 37,000  Level FlightAware
11:23AM 29.0020 -87.0940 105° East 461 531 37,000  Level FlightAware
11:23AM 29.0020 -87.0940 105° East 461 531 37,000  Level FlightAware
11:24AM 28.9780 -86.9910 105° East 461 531 37,000  Level FlightAware
11:24AM 28.9780 -86.9910 105° East 461 531 37,000  Level FlightAware
11:25AM 28.9570 -86.9000 105° East 461 531 37,000  Level FlightAware
11:25AM 28.9570 -86.9000 105° East 461 531 37,000  Level FlightAware
11:25AM 28.9317 -86.7900 105° East 458 527 37,000 -60 Level Jacksonville Center
11:26AM 28.8983 -86.6489 105° East 458 527 36,900 -60 Descending Jacksonville Center
11:27AM 28.8650 -86.5078 105° East 464 534 36,900  Level Jacksonville Center
11:28AM 28.8333 -86.3644 104° East 459 528 37,000  Climbing Jacksonville Center
11:29AM 28.7975 -86.2186 106° East 464 534 37,000 -60 Level Jacksonville Center
11:30AM 28.7656 -86.0828 105° East 459 528 36,900  Descending Jacksonville Center
11:31AM 28.7314 -85.9419 105° East 459 528 37,000 -660 Climbing Jacksonville Center
11:32AM 28.6972 -85.7989 105° East 459 528 35,600 -1,500 Descending Jacksonville Center
11:33AM 28.6647 -85.6608 105° East 459 528 34,000 -1,200 Descending Jacksonville Center
11:34AM 28.6197 -85.5247 111° Southeast 459 528 33,300 -600 Descending Jacksonville Center
11:35AM 28.5700 -85.3933 113° Southeast 459 528 32,900 -180 Descending Jacksonville Center
11:36AM 28.5267 -85.2647 111° Southeast 445 512 33,000  Climbing Jacksonville Center
11:39AM 28.3772 -84.8686 113° Southeast 452 520 33,000 -60 Level Miami Center
11:40AM 28.3514 -84.7300 102° East 452 520 32,900  Descending Miami Center
11:41AM 28.3236 -84.5892 103° East 452 520 33,000  Climbing Miami Center
11:42AM 28.2900 -84.4411 104° East 464 534 32,900  Descending Miami Center
11:43AM 28.2619 -84.3025 103° East 470 541 33,000  Climbing Miami Center
11:44AM 28.2336 -84.1619 103° East 460 529 32,900 -540 Descending Miami Center
11:45AM 28.2117 -84.0192 100° East 455 524 32,000 -900 Descending Miami Center
11:46AM 28.1683 -83.8825 110° East 455 524 31,100 -1,020 Descending Miami Center
11:47AM 28.1397 -83.7442 103° East 460 529 30,000 -1,080 Descending Miami Center
11:48AM 28.1083 -83.6131 105° East 447 514 29,000 -1,020 Descending Miami Center
11:49AM 28.0811 -83.4819 103° East 435 501 28,000 -1,080 Descending Miami Center
11:50AM 28.0536 -83.3558 104° East 419 482 26,900 -1,080 Descending Miami Center
11:51AM 28.0236 -83.2319 105° East 414 476 25,900 -1,020 Descending Miami Center
11:52AM 27.9914 -83.1103 107° East 404 465 24,900 -1,020 Descending Miami Center
11:53AM 27.9589 -82.9958 108° East 394 453 23,900 -1,020 Descending Miami Center
11:54AM 27.9297 -82.8956 108° East 383 441 22,900 -1,020 Descending Miami Center
11:55AM 27.8989 -82.7836 107° East 378 435 21,900 -1,020 Descending Miami Center
11:56AM 27.8678 -82.6764 108° East 371 427 20,900 -1,020 Descending Miami Center
11:57AM 27.8367 -82.5669 108° East 371 427 19,900 -1,020 Descending Miami Center
11:58AM 27.8494 -82.4547 83° East 361 415 18,900 -1,020 Descending Miami Center
11:59AM 27.8875 -82.3369 70° East 349 402 17,900 -960 Descending Miami Center
12:00PM 27.9206 -82.2306 71° East 349 402 17,000 -1,020 Descending Miami Center
12:02PM 27.9667 -82.0667 72° East 351 404 15,400 -1,080 Descending Orlando TRACON
12:03PM 28.0167 -81.9500 64° Northeast 348 400 14,000 -1,200 Descending Orlando TRACON
12:04PM 28.0667 -81.8667 56° Northeast 341 392 13,000 -900 Descending Orlando TRACON
12:05PM 28.1167 -81.7500 64° Northeast 335 386 12,200 -900 Descending Orlando TRACON
12:06PM 28.1667 -81.6667 56° Northeast 336 387 11,200 -1,080 Descending Orlando TRACON
12:07PM 28.2167 -81.5833 56° Northeast 316 364 10,100 -1,020 Descending Orlando TRACON
12:08PM 28.2500 -81.5333 53° Northeast 289 333 9,400 -660 Descending Orlando TRACON
12:09PM 28.3000 -81.4667 50° Northeast 263 303 9,000 -600 Descending Orlando TRACON
12:10PM 28.3500 -81.4167 41° Northeast 238 274 8,300 -960 Descending Orlando TRACON
12:11PM 28.4500 -81.4167 360° North 251 289 7,000 -1,200 Descending Orlando TRACON
12:12PM 28.5000 -81.4167 360° North 238 274 5,900 -1,380 Descending Orlando TRACON
12:13PM 28.5667 -81.4167 360° North 237 273 4,500 -1,380 Descending Orlando TRACON
12:14PM 28.5833 -81.3500 74° East 204 235 2,900 -960 Descending Orlando TRACON
12:15PM 28.5500 -81.3333 156° South 171 197 2,500 -660 Descending Orlando TRACON
12:16PM 28.5000 -81.3333 180° South 169 194 1,700 -840 Descending Orlando TRACON
12:21PM 28.4270 -81.3160 180° South 11 13 -360 Descending FlightAware